Saint Benedict, Oregon
Current Conditions -  °F | °C
As of 3:53 PM on Sunday 21 Dec 2014 (Local Time) from KUAO Reporting Station
Overcast Overcast  
Wind Chill: 53°   Ceiling: 5500
Heat Index: 53°   Visibility: 10mi
Dew Point: 49°   Wind: 8mph
Humidity: 86%   Direction: 210°SSW
Pressure: 30.12"   Gusts: 18mph
Location:  45.05°N, 122.76°W
Report Text: KUAO 212353Z AUTO 21007G16KT 10SM BKN055 OVC110 12/09 A3012 RMK AO2 SLP200 60001 T01170094 10122 20117 53007
Loading
Personal Weather Stations






























Interactive Weather Map New forecast layout! Learn more

10-Day Weather Forecast

Advertisements
Track Severe Weather on mobile